CYLW/YLW METAR and TAF weather

Enter ICAO airport designator
Station Type Date Time Source
CYLW METAR 2018/10/22 17:34 UTC NOAA

CYLW 221734Z AUTO 34003KT 290V090 3SM BR OVC002 04/04 A3013 RMK SLP219


Station Type Date Time Source
CYLW Decoded METAR 2018/10/22 17:34 UTC NOAA

Kelowna Airport, Canada (CYLW) 49-58N 119-23W 430M
Oct 22, 2018 - 01:34 PM EDT / 2018.10.22 1734 UTC
Wind: from the NNW (340 degrees) at 3 MPH (3 KT) (direction variable):0
Visibility: 3 mile(s):0
Sky conditions: overcast
Weather: mist
Temperature: 39 F (4 C)
Dew Point: 39 F (4 C)
Relative Humidity: 100%
Pressure (altimeter): 30.13 in. Hg (1020 hPa)
ob: CYLW 221734Z AUTO 34003KT 290V090 3SM BR OVC002 04/04 A3013 RMK SLP219
cycle: 17

Station Type Date Time Source
CYLW TAF 2018/10/22 17:18 UTC NOAA

TAF
AMD TAF
AMD CYLW 221716Z 2217/2301 VRB03KT 1/8SM FG VV002
TEMPO 2217/2219 2SM BR SCT002 SCT250
FM221900 01005KT P6SM FEW250
TEMPO 2219/2220 2SM BR SCT002
RMK FCST BASED ON AUTO OBS. NXT FCST BY 221900Z


Example: see airport list